Impacts TAF Board INFO
FOR SITUATIONAL AWARENESS. NOT TO BE USED FOR FLIGHT PLANNING PURPOSES.
IDs:

KGTR - Golden Triangle Arpt, MS, US

Issued at 0520 UTC 20 Jan 2018
Updated at 0918 UTC 20 Jan 2018
Potential Impact None Slight Moderate High
Time0856Z 20/10Z 20/11Z 20/12Z 20/13Z 20/14Z 20/15Z 20/16Z 20/17Z 20/18Z 20/19Z 20/20Z 20/21Z 20/22Z>>
Type OBS PRVL PRVL PRVL PRVL PRVL PRVL PRVL PRVL PRVL PRVL PRVL PRVL PRVL
VIS 10 >6 >6 >6 >6 >6 >6 >6 >6 >6 >6 >6 >6 >6
CIG 49 45 45 45 45 45 45 100 100 100 100 100 100 100
Cover OVC OVC OVC OVC OVC OVC OVC BKN BKN BKN BKN BKN BKN BKN
FltCat VFR VFR VFR VFR VFR VFR VFR VFR VFR VFR VFR VFR VFR VFR
WX -- -- -- -- -- -- -- -- -- -- -- -- -- --
WDir 140 160 160 160 160 160 160 170 170 170 170 170 170 170
WSpd 7 5 5 5 5 5 5 10 10 10 10 10 10 10
WGst -- -- -- -- -- -- -- -- -- -- -- -- -- --

Raw TAF
KGTR 200520Z 2006/2106 16005KT P6SM OVC045
  FM201600 17010KT P6SM BKN100


Raw METAR
KGTR 200856Z AUTO 14007KT 10SM OVC049 08/M04 A3023 RMK AO2 SLP238 T00781044 56004
KGTR 200756Z AUTO 14006KT 10SM OVC047 07/M04 A3023 RMK AO2 SLP239 T00721044
KGTR 200656Z AUTO 16006KT 10SM OVC047 07/M05 A3024 RMK AO2 SLP242 T00721050

METAR Board
Radar Display
Forecast Discussion

FOR SITUATIONAL AWARENESS. NOT TO BE USED FOR FLIGHT PLANNING PURPOSES.